Guymon Municipal Airport Guymon US
ICAO: KGUY
IATA: GUY
Category: Medium
Scheduled Services: No

Elevation: 3123 ft
TransAlt. 18000 ft.

Airport Communications:
ASOS:119.925
KANSAS CITY CNTR:134
CTAF/UNICOM:122.7

KGUY Zoom In..

If Map Doesn't Load, Click Here

Runways:

(A) RW 18 length 5904 ft width 100 ft
---- / hdg 177

(B) RW 36 length 5904 ft width 100 ft
---- / hdg 357

Location; KGUY
Day. 21 / Time. 15.30 Zulu
* Altimeter: 30.23
* Temperature: 16° c. 60.8°f.
* Wind from: 030° Speed 18 kn with Gusts up to 26 kn.
Dewpoint: 14° c.
Visibility: 4 Statute Miles.
Clouds: Overcast 600 ft.
Conditions: Light Rain.Conditions: Mist.

KGUY 211530Z AUTO 03018G26KT 4SM -RA BR OVC006 16/14 A3023 RMK AO2 PK WND 02026/1525 P0002 T01560144


Wind From 030°
Speed 18 kn.

 
 
jpsmedia.com for Web Design worldairports.se 2018   terms of use